createdAt,value
2022-10-08T00:06:42.585Z,10.00
2022-10-08T00:16:43.939Z,9.63
2022-10-08T00:26:45.356Z,10.02
2022-10-08T00:36:47.534Z,9.63
2022-10-08T00:46:48.852Z,8.45
2022-10-08T00:56:50.174Z,9.00
2022-10-08T01:06:51.567Z,8.32
2022-10-08T01:16:54.322Z,8.35
2022-10-08T01:26:55.642Z,7.88
2022-10-08T01:36:56.986Z,7.45
2022-10-08T01:46:59.334Z,7.15
2022-10-08T01:57:01.305Z,7.30
2022-10-08T02:07:02.673Z,8.32
2022-10-08T02:17:04.048Z,7.93
2022-10-08T02:27:05.431Z,7.95
2022-10-08T02:37:06.836Z,8.40
2022-10-08T02:47:08.855Z,8.07
2022-10-08T02:57:10.188Z,7.75
2022-10-08T03:07:13.565Z,7.90
2022-10-08T03:17:14.909Z,6.82
2022-10-08T03:27:16.278Z,7.82
2022-10-08T03:37:17.586Z,7.70
2022-10-08T03:47:18.969Z,7.10
2022-10-08T03:57:20.280Z,6.50
2022-10-08T04:07:21.589Z,6.78
2022-10-08T04:17:22.904Z,6.90
2022-10-08T04:27:24.254Z,7.03
2022-10-08T04:37:25.582Z,6.68
2022-10-08T04:47:26.898Z,6.82
2022-10-08T04:57:28.209Z,6.93
2022-10-08T05:07:29.721Z,7.22
2022-10-08T05:17:31.076Z,7.82
2022-10-08T05:27:32.389Z,7.72
2022-10-08T05:37:33.743Z,7.75
2022-10-08T05:47:35.070Z,8.10
2022-10-08T05:57:36.409Z,8.18
2022-10-08T06:07:37.785Z,8.30
2022-10-08T06:17:39.103Z,9.02
2022-10-08T06:27:40.431Z,7.35
2022-10-08T06:37:41.835Z,8.65
2022-10-08T06:47:43.162Z,11.07
2022-10-08T06:57:44.400Z,9.07
2022-10-08T07:07:45.711Z,9.55
2022-10-08T07:17:47.036Z,9.30
2022-10-08T07:27:48.329Z,8.55
2022-10-08T07:37:49.722Z,8.65
2022-10-08T07:47:51.042Z,8.18
2022-10-08T07:57:52.352Z,6.85
2022-10-08T08:07:53.703Z,5.40
2022-10-08T08:17:55.012Z,4.93
2022-10-08T08:27:56.372Z,4.15
2022-10-08T08:37:57.691Z,3.55
2022-10-08T08:48:00.380Z,3.22
2022-10-08T08:58:01.681Z,2.60
2022-10-08T09:08:05.340Z,2.80
2022-10-08T09:18:06.674Z,2.50
2022-10-08T09:28:08.091Z,2.78
2022-10-08T09:38:09.413Z,2.70
2022-10-08T09:48:10.726Z,2.47
2022-10-08T09:58:12.133Z,2.60
2022-10-08T10:08:13.398Z,1.40
2022-10-08T10:18:14.826Z,1.95
2022-10-08T10:28:16.188Z,1.70
2022-10-08T10:38:17.442Z,1.40
2022-10-08T10:48:18.805Z,1.80
2022-10-08T10:58:20.126Z,1.50
2022-10-08T11:08:21.499Z,1.23
2022-10-08T11:18:22.808Z,1.40
2022-10-08T11:28:24.422Z,1.00
2022-10-08T11:38:25.714Z,0.52
2022-10-08T11:48:27.025Z,0.80
2022-10-08T11:58:28.453Z,0.70
2022-10-08T12:08:29.817Z,0.93
2022-10-08T12:18:31.233Z,1.15
2022-10-08T12:28:32.680Z,1.15
2022-10-08T12:38:34.045Z,1.10
2022-10-08T12:48:35.330Z,0.90
2022-10-08T12:58:37.486Z,1.02
2022-10-08T13:08:38.919Z,1.25
2022-10-08T13:18:41.810Z,1.05
2022-10-08T13:28:59.963Z,1.20
2022-10-08T13:39:02.106Z,1.30
2022-10-08T13:49:03.540Z,1.20
2022-10-08T13:59:05.554Z,1.00
2022-10-08T14:09:06.971Z,1.10
2022-10-08T14:19:12.009Z,0.75
2022-10-08T14:29:13.602Z,1.00
2022-10-08T14:39:14.869Z,1.05
2022-10-08T14:49:16.453Z,1.17
2022-10-08T14:59:18.522Z,0.82
2022-10-08T15:09:19.903Z,0.88
2022-10-08T15:19:23.842Z,1.10
2022-10-08T15:29:25.497Z,1.20
2022-10-08T15:39:26.860Z,0.90
2022-10-08T15:49:28.113Z,5.28
2022-10-08T15:59:29.465Z,1.30
2022-10-08T16:09:30.842Z,1.30
2022-10-08T16:19:32.209Z,3.95
2022-10-08T16:29:33.515Z,2.20
2022-10-08T16:39:34.843Z,2.20
2022-10-08T16:49:36.258Z,4.78
2022-10-08T16:59:37.516Z,1.77
2022-10-08T17:09:38.825Z,2.65
2022-10-08T17:19:40.132Z,2.67
2022-10-08T17:29:41.446Z,3.15
2022-10-08T17:39:42.828Z,2.20
2022-10-08T17:49:44.238Z,2.38
2022-10-08T17:59:45.865Z,2.70
2022-10-08T18:09:47.340Z,4.18
2022-10-08T18:19:49.722Z,4.88
2022-10-08T18:29:51.008Z,4.72
2022-10-08T18:50:02.628Z,4.25
2022-10-08T19:00:04.343Z,4.50
2022-10-08T19:10:05.620Z,2.97
2022-10-08T19:20:07.600Z,3.75
2022-10-08T19:30:10.517Z,4.13
2022-10-08T19:40:11.832Z,3.88
2022-10-08T19:50:13.153Z,4.63
2022-10-08T20:00:15.742Z,4.45
2022-10-08T20:10:17.452Z,5.85
2022-10-08T20:20:32.194Z,5.45
2022-10-08T20:30:34.396Z,5.68
2022-10-08T20:40:35.732Z,4.97
2022-10-08T20:50:37.063Z,4.72
2022-10-08T21:00:38.488Z,6.82
2022-10-08T21:10:39.831Z,5.28
2022-10-08T21:20:41.224Z,6.15
2022-10-08T21:30:42.557Z,5.53
2022-10-08T21:40:43.916Z,6.25
2022-10-08T21:50:45.416Z,5.53
2022-10-08T22:00:46.831Z,4.82
2022-10-08T22:10:48.209Z,5.03
2022-10-08T22:20:49.550Z,5.05
2022-10-08T22:30:50.926Z,5.13
2022-10-08T22:40:52.244Z,5.28
2022-10-08T22:50:53.556Z,6.47
2022-10-08T23:00:54.878Z,7.25
2022-10-08T23:10:56.187Z,7.55
2022-10-08T23:20:57.495Z,7.80
2022-10-08T23:30:58.832Z,8.77
2022-10-08T23:41:00.444Z,9.38
2022-10-08T23:51:01.757Z,10.13
